Impacts TAF Board INFO
IDs:

KDCA - Washington/National, VA, US

Issued at 1130 UTC 10 Dec 2016
Updated at 1439 UTC 10 Dec 2016
Potential Impact None Slight Moderate High
Time1352Z 10/15Z 10/16Z 10/17Z 10/18Z 10/19Z 10/20Z 10/21Z 10/22Z 10/23Z 11/00Z 11/01Z 11/02Z 11/03Z
Type OBS PRVL PRVL PRVL PRVL PRVL PRVL PRVL PRVL PRVL PRVL PRVL PRVL PRVL
VIS 10 >6 >6 >6 >6 >6 >6 >6 >6 >6 >6 >6 >6 >6
CIG -- -- -- -- -- -- -- -- -- -- -- -- -- --
Cover FEW SCT SCT SCT SCT SCT SCT SCT SCT SCT SCT SCT SCT SCT
FltCat VFR VFR VFR VFR VFR VFR VFR VFR VFR VFR VFR VFR VFR VFR
WX -- -- -- -- -- -- -- -- -- -- -- -- -- --
WDir 310 300 300 300 300 300 300 300 300 300 300 300 300 300
WSpd 7 12 12 12 12 12 12 12 12 12 12 12 12 12
WGst 16 17 17 17 17 17 17 17 17 17 17 17 17 17

Raw TAF
KDCA 101130Z 1012/1112 28007KT P6SM FEW150
  FM101400 30012G17KT P6SM SCT120
  FM110500 VRB03KT P6SM SCT130
  FM110700 VRB03KT P6SM BKN100


Raw METAR
KDCA 101352Z 31007G16KT 10SM FEW150 FEW250 01/M09 A3051 RMK AO2 SLP331 T00061094
KDCA 101252Z 29008KT 10SM FEW150 SCT250 M01/M10 A3051 RMK AO2 SLP331 T10061100
KDCA 101152Z VRB03KT 10SM FEW200 M01/M10 A3051 RMK AO2 SLP329 T10061100 10000 21017 53012

METAR Board
Radar Display
Forecast Discussion